sensor_id;sensor_type;location;lat;lon;timestamp;P1;durP1;ratioP1;P2;durP2;ratioP2
70312;SDS011;57723;51.698;5.344;2022-11-04T00:01:14;3.37;;;1.40;;
70312;SDS011;57723;51.698;5.344;2022-11-04T00:03:39;4.00;;;1.30;;
70312;SDS011;57723;51.698;5.344;2022-11-04T00:06:04;5.17;;;1.20;;
70312;SDS011;57723;51.698;5.344;2022-11-04T00:08:30;6.40;;;1.13;;
70312;SDS011;57723;51.698;5.344;2022-11-04T00:10:55;2.33;;;1.07;;
70312;SDS011;57723;51.698;5.344;2022-11-04T00:13:40;3.28;;;1.30;;
70312;SDS011;57723;51.698;5.344;2022-11-04T00:16:05;2.27;;;1.10;;
70312;SDS011;57723;51.698;5.344;2022-11-04T00:18:49;4.22;;;1.10;;
70312;SDS011;57723;51.698;5.344;2022-11-04T00:21:14;2.73;;;1.03;;
70312;SDS011;57723;51.698;5.344;2022-11-04T00:23:58;2.37;;;1.17;;
70312;SDS011;57723;51.698;5.344;2022-11-04T00:26:41;2.90;;;0.80;;
70312;SDS011;57723;51.698;5.344;2022-11-04T00:29:25;3.13;;;1.17;;
70312;SDS011;57723;51.698;5.344;2022-11-04T00:31:50;4.07;;;1.13;;
70312;SDS011;57723;51.698;5.344;2022-11-04T00:34:34;8.10;;;1.55;;
70312;SDS011;57723;51.698;5.344;2022-11-04T00:36:59;2.37;;;1.10;;
70312;SDS011;57723;51.698;5.344;2022-11-04T00:39:26;4.40;;;1.00;;
70312;SDS011;57723;51.698;5.344;2022-11-04T00:41:52;4.10;;;1.27;;
70312;SDS011;57723;51.698;5.344;2022-11-04T00:44:17;2.37;;;0.90;;
70312;SDS011;57723;51.698;5.344;2022-11-04T00:46:42;4.70;;;1.17;;
70312;SDS011;57723;51.698;5.344;2022-11-04T00:49:07;4.85;;;1.17;;
70312;SDS011;57723;51.698;5.344;2022-11-04T00:51:32;3.20;;;1.13;;
70312;SDS011;57723;51.698;5.344;2022-11-04T00:53:57;3.20;;;1.30;;
70312;SDS011;57723;51.698;5.344;2022-11-04T00:56:23;2.80;;;1.10;;
70312;SDS011;57723;51.698;5.344;2022-11-04T00:58:48;1.83;;;0.90;;
70312;SDS011;57723;51.698;5.344;2022-11-04T01:01:14;4.60;;;1.40;;
70312;SDS011;57723;51.698;5.344;2022-11-04T01:03:43;2.22;;;1.20;;
70312;SDS011;57723;51.698;5.344;2022-11-04T01:06:08;3.15;;;1.00;;
70312;SDS011;57723;51.698;5.344;2022-11-04T01:08:33;2.90;;;1.10;;
70312;SDS011;57723;51.698;5.344;2022-11-04T01:11:02;3.20;;;1.57;;
70312;SDS011;57723;51.698;5.344;2022-11-04T01:13:28;1.45;;;1.00;;
70312;SDS011;57723;51.698;5.344;2022-11-04T01:15:56;3.40;;;1.10;;
70312;SDS011;57723;51.698;5.344;2022-11-04T01:18:21;3.67;;;1.27;;
70312;SDS011;57723;51.698;5.344;2022-11-04T01:20:46;4.97;;;1.33;;
70312;SDS011;57723;51.698;5.344;2022-11-04T01:23:11;3.43;;;1.37;;
70312;SDS011;57723;51.698;5.344;2022-11-04T01:25:39;2.20;;;1.00;;
70312;SDS011;57723;51.698;5.344;2022-11-04T01:28:05;1.77;;;1.10;;
70312;SDS011;57723;51.698;5.344;2022-11-04T01:30:30;2.83;;;1.50;;
70312;SDS011;57723;51.698;5.344;2022-11-04T01:32:55;3.40;;;1.40;;
70312;SDS011;57723;51.698;5.344;2022-11-04T01:35:21;3.08;;;1.50;;
70312;SDS011;57723;51.698;5.344;2022-11-04T01:37:46;6.17;;;1.80;;
70312;SDS011;57723;51.698;5.344;2022-11-04T01:40:11;2.10;;;1.20;;
70312;SDS011;57723;51.698;5.344;2022-11-04T01:42:36;2.33;;;1.23;;
70312;SDS011;57723;51.698;5.344;2022-11-04T01:45:01;2.20;;;1.30;;
70312;SDS011;57723;51.698;5.344;2022-11-04T01:47:38;3.43;;;1.73;;
70312;SDS011;57723;51.698;5.344;2022-11-04T01:53:00;4.15;;;1.88;;
70312;SDS011;57723;51.698;5.344;2022-11-04T01:55:38;2.38;;;1.40;;
70312;SDS011;57723;51.698;5.344;2022-11-04T01:58:07;4.50;;;1.50;;
70312;SDS011;57723;51.698;5.344;2022-11-04T02:00:33;3.75;;;1.30;;
70312;SDS011;57723;51.698;5.344;2022-11-04T02:02:59;4.07;;;1.30;;
70312;SDS011;57723;51.698;5.344;2022-11-04T02:05:26;2.88;;;1.25;;
70312;SDS011;57723;51.698;5.344;2022-11-04T02:07:54;3.83;;;1.40;;
70312;SDS011;57723;51.698;5.344;2022-11-04T02:10:21;4.82;;;1.23;;
70312;SDS011;57723;51.698;5.344;2022-11-04T02:12:47;3.07;;;1.40;;
70312;SDS011;57723;51.698;5.344;2022-11-04T02:20:58;4.63;;;1.58;;
70312;SDS011;57723;51.698;5.344;2022-11-04T02:27:02;2.40;;;1.07;;
70312;SDS011;57723;51.698;5.344;2022-11-04T02:34:09;2.65;;;1.30;;
70312;SDS011;57723;51.698;5.344;2022-11-04T02:36:39;2.85;;;1.15;;
70312;SDS011;57723;51.698;5.344;2022-11-04T02:44:29;3.60;;;1.20;;
70312;SDS011;57723;51.698;5.344;2022-11-04T02:46:59;3.13;;;1.38;;
70312;SDS011;57723;51.698;5.344;2022-11-04T02:51:55;2.33;;;1.20;;
70312;SDS011;57723;51.698;5.344;2022-11-04T02:54:27;2.47;;;1.30;;
70312;SDS011;57723;51.698;5.344;2022-11-04T02:56:55;4.18;;;1.50;;
70312;SDS011;57723;51.698;5.344;2022-11-04T02:59:32;2.25;;;1.05;;
70312;SDS011;57723;51.698;5.344;2022-11-04T03:01:59;3.83;;;1.13;;
70312;SDS011;57723;51.698;5.344;2022-11-04T03:04:28;3.80;;;1.23;;
70312;SDS011;57723;51.698;5.344;2022-11-04T03:06:54;4.47;;;1.13;;
70312;SDS011;57723;51.698;5.344;2022-11-04T03:09:21;3.60;;;1.27;;
70312;SDS011;57723;51.698;5.344;2022-11-04T03:11:47;2.90;;;1.30;;
70312;SDS011;57723;51.698;5.344;2022-11-04T03:14:15;4.65;;;1.30;;
70312;SDS011;57723;51.698;5.344;2022-11-04T03:16:50;1.50;;;1.00;;
70312;SDS011;57723;51.698;5.344;2022-11-04T03:19:30;2.35;;;1.20;;
70312;SDS011;57723;51.698;5.344;2022-11-04T03:22:03;2.63;;;1.00;;
70312;SDS011;57723;51.698;5.344;2022-11-04T03:24:28;2.38;;;1.20;;
70312;SDS011;57723;51.698;5.344;2022-11-04T03:26:59;3.92;;;1.05;;
70312;SDS011;57723;51.698;5.344;2022-11-04T03:29:26;3.63;;;0.93;;
70312;SDS011;57723;51.698;5.344;2022-11-04T03:31:59;2.63;;;1.10;;
70312;SDS011;57723;51.698;5.344;2022-11-04T03:34:26;3.00;;;1.10;;
70312;SDS011;57723;51.698;5.344;2022-11-04T03:36:51;2.63;;;0.98;;
70312;SDS011;57723;51.698;5.344;2022-11-04T03:39:17;3.77;;;1.00;;
70312;SDS011;57723;51.698;5.344;2022-11-04T03:41:49;3.53;;;1.10;;
70312;SDS011;57723;51.698;5.344;2022-11-04T03:44:16;3.03;;;1.10;;
70312;SDS011;57723;51.698;5.344;2022-11-04T03:46:41;4.93;;;1.30;;
70312;SDS011;57723;51.698;5.344;2022-11-04T03:49:07;5.45;;;1.20;;
70312;SDS011;57723;51.698;5.344;2022-11-04T03:51:33;2.35;;;1.10;;
70312;SDS011;57723;51.698;5.344;2022-11-04T03:53:58;4.57;;;1.20;;
70312;SDS011;57723;51.698;5.344;2022-11-04T04:06:38;5.57;;;1.00;;
70312;SDS011;57723;51.698;5.344;2022-11-04T04:09:20;1.70;;;1.00;;
70312;SDS011;57723;51.698;5.344;2022-11-04T04:12:06;5.38;;;1.20;;
70312;SDS011;57723;51.698;5.344;2022-11-04T04:14:37;3.13;;;0.90;;
70312;SDS011;57723;51.698;5.344;2022-11-04T04:17:05;2.22;;;1.00;;
70312;SDS011;57723;51.698;5.344;2022-11-04T04:19:31;1.52;;;0.75;;
70312;SDS011;57723;51.698;5.344;2022-11-04T04:21:59;3.03;;;1.00;;
70312;SDS011;57723;51.698;5.344;2022-11-04T04:24:31;7.82;;;1.38;;
70312;SDS011;57723;51.698;5.344;2022-11-04T04:27:16;5.38;;;1.20;;
70312;SDS011;57723;51.698;5.344;2022-11-04T04:29:56;2.63;;;1.00;;
70312;SDS011;57723;51.698;5.344;2022-11-04T04:32:23;1.95;;;0.95;;
70312;SDS011;57723;51.698;5.344;2022-11-04T04:34:49;1.98;;;1.10;;
70312;SDS011;57723;51.698;5.344;2022-11-04T04:37:19;1.57;;;0.90;;
70312;SDS011;57723;51.698;5.344;2022-11-04T04:39:52;2.00;;;0.90;;
70312;SDS011;57723;51.698;5.344;2022-11-04T04:42:37;1.67;;;0.80;;
70312;SDS011;57723;51.698;5.344;2022-11-04T04:45:24;3.10;;;1.10;;
70312;SDS011;57723;51.698;5.344;2022-11-04T04:47:51;3.63;;;1.10;;
70312;SDS011;57723;51.698;5.344;2022-11-04T04:50:18;4.43;;;1.23;;
70312;SDS011;57723;51.698;5.344;2022-11-04T04:52:45;2.83;;;1.00;;
70312;SDS011;57723;51.698;5.344;2022-11-04T04:55:11;2.70;;;0.90;;
70312;SDS011;57723;51.698;5.344;2022-11-04T04:57:37;1.88;;;1.08;;
70312;SDS011;57723;51.698;5.344;2022-11-04T05:00:03;3.43;;;1.00;;
70312;SDS011;57723;51.698;5.344;2022-11-04T05:02:28;3.70;;;0.90;;
70312;SDS011;57723;51.698;5.344;2022-11-04T05:04:54;3.93;;;0.93;;
70312;SDS011;57723;51.698;5.344;2022-11-04T05:07:20;2.15;;;0.90;;
70312;SDS011;57723;51.698;5.344;2022-11-04T05:09:45;3.73;;;1.00;;
70312;SDS011;57723;51.698;5.344;2022-11-04T05:12:10;2.63;;;1.00;;
70312;SDS011;57723;51.698;5.344;2022-11-04T05:14:36;2.70;;;0.90;;
70312;SDS011;57723;51.698;5.344;2022-11-04T05:17:04;2.63;;;1.02;;
70312;SDS011;57723;51.698;5.344;2022-11-04T05:19:29;2.30;;;1.08;;
70312;SDS011;57723;51.698;5.344;2022-11-04T05:21:57;1.80;;;0.80;;
70312;SDS011;57723;51.698;5.344;2022-11-04T05:24:22;2.08;;;0.90;;
70312;SDS011;57723;51.698;5.344;2022-11-04T05:26:47;3.37;;;1.00;;
70312;SDS011;57723;51.698;5.344;2022-11-04T05:29:13;1.83;;;0.80;;
70312;SDS011;57723;51.698;5.344;2022-11-04T05:31:38;4.27;;;0.90;;
70312;SDS011;57723;51.698;5.344;2022-11-04T05:34:03;1.00;;;0.80;;
70312;SDS011;57723;51.698;5.344;2022-11-04T05:36:29;3.20;;;1.00;;
70312;SDS011;57723;51.698;5.344;2022-11-04T05:38:57;2.22;;;0.80;;
70312;SDS011;57723;51.698;5.344;2022-11-04T05:41:22;2.80;;;1.00;;
70312;SDS011;57723;51.698;5.344;2022-11-04T05:43:50;2.53;;;0.90;;
70312;SDS011;57723;51.698;5.344;2022-11-04T05:46:16;2.80;;;0.88;;
70312;SDS011;57723;51.698;5.344;2022-11-04T05:48:41;2.93;;;1.00;;
70312;SDS011;57723;51.698;5.344;2022-11-04T05:51:06;4.97;;;1.10;;
70312;SDS011;57723;51.698;5.344;2022-11-04T05:53:31;2.97;;;0.83;;
70312;SDS011;57723;51.698;5.344;2022-11-04T05:55:56;5.13;;;1.00;;
70312;SDS011;57723;51.698;5.344;2022-11-04T05:58:21;3.77;;;0.90;;
70312;SDS011;57723;51.698;5.344;2022-11-04T06:00:47;6.57;;;1.03;;
70312;SDS011;57723;51.698;5.344;2022-11-04T06:03:12;5.80;;;0.90;;
70312;SDS011;57723;51.698;5.344;2022-11-04T06:05:37;4.90;;;0.90;;
70312;SDS011;57723;51.698;5.344;2022-11-04T06:08:05;2.75;;;0.90;;
70312;SDS011;57723;51.698;5.344;2022-11-04T06:10:30;2.13;;;1.00;;
70312;SDS011;57723;51.698;5.344;2022-11-04T06:12:56;3.87;;;1.00;;
70312;SDS011;57723;51.698;5.344;2022-11-04T06:15:21;7.10;;;1.20;;
70312;SDS011;57723;51.698;5.344;2022-11-04T06:17:46;5.15;;;0.90;;
70312;SDS011;57723;51.698;5.344;2022-11-04T06:20:12;7.53;;;0.93;;
70312;SDS011;57723;51.698;5.344;2022-11-04T06:22:37;9.25;;;1.65;;
70312;SDS011;57723;51.698;5.344;2022-11-04T06:25:03;3.67;;;0.90;;
70312;SDS011;57723;51.698;5.344;2022-11-04T06:27:28;6.63;;;1.00;;
70312;SDS011;57723;51.698;5.344;2022-11-04T06:29:55;5.97;;;1.23;;
70312;SDS011;57723;51.698;5.344;2022-11-04T06:32:21;6.23;;;1.10;;
70312;SDS011;57723;51.698;5.344;2022-11-04T06:34:46;6.30;;;1.10;;
70312;SDS011;57723;51.698;5.344;2022-11-04T06:37:11;4.00;;;1.23;;
70312;SDS011;57723;51.698;5.344;2022-11-04T06:42:39;6.80;;;1.10;;
70312;SDS011;57723;51.698;5.344;2022-11-04T06:45:07;9.13;;;1.40;;
70312;SDS011;57723;51.698;5.344;2022-11-04T06:47:34;11.30;;;1.08;;
70312;SDS011;57723;51.698;5.344;2022-11-04T06:49:59;10.60;;;1.13;;
70312;SDS011;57723;51.698;5.344;2022-11-04T06:52:25;6.70;;;1.00;;
70312;SDS011;57723;51.698;5.344;2022-11-04T06:54:51;8.17;;;1.27;;
70312;SDS011;57723;51.698;5.344;2022-11-04T06:57:16;6.57;;;1.27;;
70312;SDS011;57723;51.698;5.344;2022-11-04T06:59:41;9.17;;;0.97;;
70312;SDS011;57723;51.698;5.344;2022-11-04T07:02:08;3.93;;;1.10;;
70312;SDS011;57723;51.698;5.344;2022-11-04T07:04:33;7.90;;;1.67;;
70312;SDS011;57723;51.698;5.344;2022-11-04T07:06:58;5.67;;;0.90;;
70312;SDS011;57723;51.698;5.344;2022-11-04T07:09:23;7.00;;;1.00;;
70312;SDS011;57723;51.698;5.344;2022-11-04T07:11:48;3.23;;;1.00;;
70312;SDS011;57723;51.698;5.344;2022-11-04T07:14:14;7.93;;;1.40;;
70312;SDS011;57723;51.698;5.344;2022-11-04T07:16:39;5.10;;;1.30;;
70312;SDS011;57723;51.698;5.344;2022-11-04T07:19:04;4.37;;;1.10;;
70312;SDS011;57723;51.698;5.344;2022-11-04T07:21:29;7.83;;;1.30;;
70312;SDS011;57723;51.698;5.344;2022-11-04T07:23:55;6.70;;;1.10;;
70312;SDS011;57723;51.698;5.344;2022-11-04T07:26:20;3.50;;;1.30;;
70312;SDS011;57723;51.698;5.344;2022-11-04T07:28:46;7.63;;;1.75;;
70312;SDS011;57723;51.698;5.344;2022-11-04T07:31:11;7.10;;;1.47;;
70312;SDS011;57723;51.698;5.344;2022-11-04T07:33:37;7.40;;;1.10;;
70312;SDS011;57723;51.698;5.344;2022-11-04T07:36:06;6.90;;;1.30;;
70312;SDS011;57723;51.698;5.344;2022-11-04T07:38:32;6.70;;;1.20;;
70312;SDS011;57723;51.698;5.344;2022-11-04T07:40:58;8.23;;;1.50;;
70312;SDS011;57723;51.698;5.344;2022-11-04T07:43:23;6.07;;;1.30;;
70312;SDS011;57723;51.698;5.344;2022-11-04T07:45:58;4.70;;;1.37;;
70312;SDS011;57723;51.698;5.344;2022-11-04T07:48:23;7.23;;;0.90;;
70312;SDS011;57723;51.698;5.344;2022-11-04T07:50:48;7.50;;;1.30;;
70312;SDS011;57723;51.698;5.344;2022-11-04T07:53:13;3.40;;;1.00;;
70312;SDS011;57723;51.698;5.344;2022-11-04T07:55:38;3.80;;;1.33;;
70312;SDS011;57723;51.698;5.344;2022-11-04T07:58:04;5.13;;;1.30;;
70312;SDS011;57723;51.698;5.344;2022-11-04T08:00:32;6.33;;;1.60;;
70312;SDS011;57723;51.698;5.344;2022-11-04T08:02:57;4.68;;;1.10;;
70312;SDS011;57723;51.698;5.344;2022-11-04T08:05:22;2.97;;;1.00;;
70312;SDS011;57723;51.698;5.344;2022-11-04T08:07:47;5.03;;;1.17;;
70312;SDS011;57723;51.698;5.344;2022-11-04T08:10:13;6.63;;;1.13;;
70312;SDS011;57723;51.698;5.344;2022-11-04T08:12:38;2.77;;;0.87;;
70312;SDS011;57723;51.698;5.344;2022-11-04T08:15:03;3.40;;;1.27;;
70312;SDS011;57723;51.698;5.344;2022-11-04T08:17:29;4.03;;;1.30;;
70312;SDS011;57723;51.698;5.344;2022-11-04T08:19:54;3.20;;;1.00;;
70312;SDS011;57723;51.698;5.344;2022-11-04T08:22:19;5.80;;;1.13;;
70312;SDS011;57723;51.698;5.344;2022-11-04T08:24:44;4.63;;;0.80;;
70312;SDS011;57723;51.698;5.344;2022-11-04T08:27:11;1.63;;;0.80;;
70312;SDS011;57723;51.698;5.344;2022-11-04T08:29:36;4.28;;;1.13;;
70312;SDS011;57723;51.698;5.344;2022-11-04T08:32:01;4.00;;;1.07;;
70312;SDS011;57723;51.698;5.344;2022-11-04T08:34:27;3.63;;;0.90;;
70312;SDS011;57723;51.698;5.344;2022-11-04T08:36:52;4.07;;;1.20;;
70312;SDS011;57723;51.698;5.344;2022-11-04T08:39:17;5.83;;;1.20;;
70312;SDS011;57723;51.698;5.344;2022-11-04T08:41:42;5.43;;;1.20;;
70312;SDS011;57723;51.698;5.344;2022-11-04T08:44:09;6.20;;;1.25;;
70312;SDS011;57723;51.698;5.344;2022-11-04T08:46:36;3.70;;;1.10;;
70312;SDS011;57723;51.698;5.344;2022-11-04T08:49:02;4.93;;;1.10;;
70312;SDS011;57723;51.698;5.344;2022-11-04T08:51:28;5.22;;;1.20;;
70312;SDS011;57723;51.698;5.344;2022-11-04T08:53:54;2.88;;;1.00;;
70312;SDS011;57723;51.698;5.344;2022-11-04T08:58:44;8.18;;;1.15;;
70312;SDS011;57723;51.698;5.344;2022-11-04T09:01:09;5.40;;;1.20;;
70312;SDS011;57723;51.698;5.344;2022-11-04T09:03:35;2.23;;;1.07;;
70312;SDS011;57723;51.698;5.344;2022-11-04T09:06:02;3.85;;;1.00;;
70312;SDS011;57723;51.698;5.344;2022-11-04T09:08:27;2.40;;;1.00;;
70312;SDS011;57723;51.698;5.344;2022-11-04T09:10:52;3.97;;;0.90;;
70312;SDS011;57723;51.698;5.344;2022-11-04T09:13:17;3.03;;;1.03;;
70312;SDS011;57723;51.698;5.344;2022-11-04T09:15:43;3.17;;;1.23;;
70312;SDS011;57723;51.698;5.344;2022-11-04T09:18:08;4.17;;;1.10;;
70312;SDS011;57723;51.698;5.344;2022-11-04T09:20:33;3.33;;;1.00;;
70312;SDS011;57723;51.698;5.344;2022-11-04T09:23:02;4.78;;;1.35;;
70312;SDS011;57723;51.698;5.344;2022-11-04T09:25:27;3.83;;;0.70;;
70312;SDS011;57723;51.698;5.344;2022-11-04T09:27:53;3.37;;;1.30;;
70312;SDS011;57723;51.698;5.344;2022-11-04T09:30:18;5.77;;;0.90;;
70312;SDS011;57723;51.698;5.344;2022-11-04T09:32:43;3.43;;;1.07;;
70312;SDS011;57723;51.698;5.344;2022-11-04T09:35:08;4.60;;;1.30;;
70312;SDS011;57723;51.698;5.344;2022-11-04T09:37:33;3.73;;;1.07;;
70312;SDS011;57723;51.698;5.344;2022-11-04T09:39:58;3.40;;;0.97;;
70312;SDS011;57723;51.698;5.344;2022-11-04T09:42:29;4.17;;;1.20;;
70312;SDS011;57723;51.698;5.344;2022-11-04T09:45:03;5.32;;;1.10;;
70312;SDS011;57723;51.698;5.344;2022-11-04T09:47:30;5.43;;;1.25;;
70312;SDS011;57723;51.698;5.344;2022-11-04T09:49:57;5.00;;;1.10;;
70312;SDS011;57723;51.698;5.344;2022-11-04T09:52:23;3.65;;;1.20;;
70312;SDS011;57723;51.698;5.344;2022-11-04T09:54:51;4.18;;;1.38;;
70312;SDS011;57723;51.698;5.344;2022-11-04T09:57:18;2.70;;;0.95;;
70312;SDS011;57723;51.698;5.344;2022-11-04T09:59:44;2.83;;;1.10;;
70312;SDS011;57723;51.698;5.344;2022-11-04T10:09:53;3.60;;;1.33;;
70312;SDS011;57723;51.698;5.344;2022-11-04T10:22:57;3.05;;;0.90;;
70312;SDS011;57723;51.698;5.344;2022-11-04T10:26:09;4.65;;;1.17;;
70312;SDS011;57723;51.698;5.344;2022-11-04T10:28:09;3.83;;;1.20;;
70312;SDS011;57723;51.698;5.344;2022-11-04T10:30:37;3.50;;;1.10;;
70312;SDS011;57723;51.698;5.344;2022-11-04T10:35:52;2.40;;;1.00;;
70312;SDS011;57723;51.698;5.344;2022-11-04T10:41:15;5.30;;;1.17;;
70312;SDS011;57723;51.698;5.344;2022-11-04T10:43:41;5.43;;;1.30;;
70312;SDS011;57723;51.698;5.344;2022-11-04T10:46:25;2.50;;;1.03;;
70312;SDS011;57723;51.698;5.344;2022-11-04T10:51:20;3.38;;;1.33;;
70312;SDS011;57723;51.698;5.344;2022-11-04T10:53:46;3.33;;;1.10;;
70312;SDS011;57723;51.698;5.344;2022-11-04T10:56:17;5.60;;;1.00;;
70312;SDS011;57723;51.698;5.344;2022-11-04T10:58:44;4.15;;;1.30;;
70312;SDS011;57723;51.698;5.344;2022-11-04T11:03:47;10.98;;;1.42;;
70312;SDS011;57723;51.698;5.344;2022-11-04T11:08:41;4.63;;;1.10;;
70312;SDS011;57723;51.698;5.344;2022-11-04T11:11:08;2.63;;;1.10;;
70312;SDS011;57723;51.698;5.344;2022-11-04T11:13:37;4.20;;;1.10;;
70312;SDS011;57723;51.698;5.344;2022-11-04T11:16:05;4.03;;;1.30;;
70312;SDS011;57723;51.698;5.344;2022-11-04T11:18:31;5.03;;;1.08;;
70312;SDS011;57723;51.698;5.344;2022-11-04T11:23:50;4.37;;;1.30;;
70312;SDS011;57723;51.698;5.344;2022-11-04T11:26:20;4.72;;;1.20;;
70312;SDS011;57723;51.698;5.344;2022-11-04T11:28:53;4.70;;;1.10;;
70312;SDS011;57723;51.698;5.344;2022-11-04T11:31:26;4.75;;;1.10;;
70312;SDS011;57723;51.698;5.344;2022-11-04T11:33:59;4.78;;;1.20;;
70312;SDS011;57723;51.698;5.344;2022-11-04T11:36:31;4.17;;;0.90;;
70312;SDS011;57723;51.698;5.344;2022-11-04T11:39:19;2.45;;;1.00;;
70312;SDS011;57723;51.698;5.344;2022-11-04T11:46:48;5.80;;;1.20;;
70312;SDS011;57723;51.698;5.344;2022-11-04T11:49:21;4.25;;;1.23;;
70312;SDS011;57723;51.698;5.344;2022-11-04T11:51:47;3.00;;;1.07;;
70312;SDS011;57723;51.698;5.344;2022-11-04T11:54:47;3.70;;;1.02;;
70312;SDS011;57723;51.698;5.344;2022-11-04T11:57:21;2.65;;;1.00;;
70312;SDS011;57723;51.698;5.344;2022-11-04T11:59:56;2.33;;;1.00;;
70312;SDS011;57723;51.698;5.344;2022-11-04T12:02:28;2.08;;;1.13;;
70312;SDS011;57723;51.698;5.344;2022-11-04T12:04:55;4.30;;;1.17;;
70312;SDS011;57723;51.698;5.344;2022-11-04T12:20:20;4.03;;;0.98;;
70312;SDS011;57723;51.698;5.344;2022-11-04T12:22:54;2.80;;;1.27;;
70312;SDS011;57723;51.698;5.344;2022-11-04T12:30:35;4.07;;;1.23;;
70312;SDS011;57723;51.698;5.344;2022-11-04T12:33:19;3.40;;;1.10;;
70312;SDS011;57723;51.698;5.344;2022-11-04T12:54:03;3.78;;;1.08;;
70312;SDS011;57723;51.698;5.344;2022-11-04T12:56:36;4.13;;;1.20;;
70312;SDS011;57723;51.698;5.344;2022-11-04T12:59:15;2.53;;;1.15;;
70312;SDS011;57723;51.698;5.344;2022-11-04T13:01:45;2.78;;;1.10;;
70312;SDS011;57723;51.698;5.344;2022-11-04T13:04:13;2.93;;;1.20;;
70312;SDS011;57723;51.698;5.344;2022-11-04T13:06:43;5.18;;;1.30;;
70312;SDS011;57723;51.698;5.344;2022-11-04T13:09:16;3.60;;;1.08;;
70312;SDS011;57723;51.698;5.344;2022-11-04T13:11:44;3.28;;;1.10;;
70312;SDS011;57723;51.698;5.344;2022-11-04T13:14:12;2.92;;;1.10;;
70312;SDS011;57723;51.698;5.344;2022-11-04T13:16:40;6.17;;;1.23;;
70312;SDS011;57723;51.698;5.344;2022-11-04T13:19:09;5.45;;;1.48;;
70312;SDS011;57723;51.698;5.344;2022-11-04T13:21:37;4.55;;;1.20;;
70312;SDS011;57723;51.698;5.344;2022-11-04T13:24:04;8.83;;;1.27;;
70312;SDS011;57723;51.698;5.344;2022-11-04T13:26:30;16.55;;;1.30;;
70312;SDS011;57723;51.698;5.344;2022-11-04T13:29:00;8.63;;;1.40;;
70312;SDS011;57723;51.698;5.344;2022-11-04T13:31:33;8.90;;;1.20;;
70312;SDS011;57723;51.698;5.344;2022-11-04T13:34:05;7.78;;;1.55;;
70312;SDS011;57723;51.698;5.344;2022-11-04T13:36:46;4.30;;;1.20;;
70312;SDS011;57723;51.698;5.344;2022-11-04T13:44:25;7.03;;;1.30;;
70312;SDS011;57723;51.698;5.344;2022-11-04T13:46:51;4.78;;;1.20;;
70312;SDS011;57723;51.698;5.344;2022-11-04T13:49:20;5.45;;;1.45;;
70312;SDS011;57723;51.698;5.344;2022-11-04T13:52:10;7.10;;;1.45;;
70312;SDS011;57723;51.698;5.344;2022-11-04T13:54:57;3.58;;;1.48;;
70312;SDS011;57723;51.698;5.344;2022-11-04T13:57:24;8.17;;;1.60;;
70312;SDS011;57723;51.698;5.344;2022-11-04T14:02:48;5.63;;;1.35;;
70312;SDS011;57723;51.698;5.344;2022-11-04T14:10:45;6.53;;;1.40;;
70312;SDS011;57723;51.698;5.344;2022-11-04T14:18:30;9.38;;;1.65;;
70312;SDS011;57723;51.698;5.344;2022-11-04T14:21:00;9.07;;;1.52;;
70312;SDS011;57723;51.698;5.344;2022-11-04T14:23:26;10.50;;;1.80;;
70312;SDS011;57723;51.698;5.344;2022-11-04T14:26:00;8.47;;;1.80;;
70312;SDS011;57723;51.698;5.344;2022-11-04T14:28:27;5.45;;;1.70;;
70312;SDS011;57723;51.698;5.344;2022-11-04T14:30:54;7.47;;;1.63;;
70312;SDS011;57723;51.698;5.344;2022-11-04T14:35:51;8.23;;;1.50;;
70312;SDS011;57723;51.698;5.344;2022-11-04T14:38:25;5.23;;;1.70;;
70312;SDS011;57723;51.698;5.344;2022-11-04T14:40:51;8.93;;;1.90;;
70312;SDS011;57723;51.698;5.344;2022-11-04T14:43:34;7.22;;;1.58;;
70312;SDS011;57723;51.698;5.344;2022-11-04T14:46:00;7.57;;;1.40;;
70312;SDS011;57723;51.698;5.344;2022-11-04T14:48:26;3.80;;;1.13;;
70312;SDS011;57723;51.698;5.344;2022-11-04T14:50:53;5.95;;;1.60;;
70312;SDS011;57723;51.698;5.344;2022-11-04T14:53:24;5.95;;;1.80;;
70312;SDS011;57723;51.698;5.344;2022-11-04T14:56:13;6.97;;;1.80;;
70312;SDS011;57723;51.698;5.344;2022-11-04T14:58:35;5.20;;;1.70;;
70312;SDS011;57723;51.698;5.344;2022-11-04T15:01:01;9.13;;;1.97;;
70312;SDS011;57723;51.698;5.344;2022-11-04T15:03:27;5.50;;;1.63;;
70312;SDS011;57723;51.698;5.344;2022-11-04T15:05:55;7.40;;;1.85;;
70312;SDS011;57723;51.698;5.344;2022-11-04T15:11:07;6.13;;;1.40;;
70312;SDS011;57723;51.698;5.344;2022-11-04T15:18:41;9.38;;;1.75;;
70312;SDS011;57723;51.698;5.344;2022-11-04T15:21:07;9.48;;;1.60;;
70312;SDS011;57723;51.698;5.344;2022-11-04T15:23:34;5.23;;;1.40;;
70312;SDS011;57723;51.698;5.344;2022-11-04T15:26:00;8.60;;;1.70;;
70312;SDS011;57723;51.698;5.344;2022-11-04T15:28:45;7.65;;;1.55;;
70312;SDS011;57723;51.698;5.344;2022-11-04T15:33:43;6.03;;;1.35;;
70312;SDS011;57723;51.698;5.344;2022-11-04T15:36:17;5.00;;;1.23;;
70312;SDS011;57723;51.698;5.344;2022-11-04T15:38:45;10.05;;;1.63;;
70312;SDS011;57723;51.698;5.344;2022-11-04T15:41:12;4.90;;;1.40;;
70312;SDS011;57723;51.698;5.344;2022-11-04T15:43:57;4.10;;;1.40;;
70312;SDS011;57723;51.698;5.344;2022-11-04T15:46:23;6.30;;;1.60;;
70312;SDS011;57723;51.698;5.344;2022-11-04T15:48:58;10.23;;;1.50;;
70312;SDS011;57723;51.698;5.344;2022-11-04T15:51:23;4.13;;;1.40;;
70312;SDS011;57723;51.698;5.344;2022-11-04T15:54:03;5.40;;;1.67;;
70312;SDS011;57723;51.698;5.344;2022-11-04T15:56:33;7.30;;;1.50;;
70312;SDS011;57723;51.698;5.344;2022-11-04T15:59:05;4.25;;;1.60;;
70312;SDS011;57723;51.698;5.344;2022-11-04T16:01:32;5.38;;;1.50;;
70312;SDS011;57723;51.698;5.344;2022-11-04T16:03:58;3.33;;;1.40;;
70312;SDS011;57723;51.698;5.344;2022-11-04T16:06:37;6.65;;;1.60;;
70312;SDS011;57723;51.698;5.344;2022-11-04T16:09:17;8.38;;;1.73;;
70312;SDS011;57723;51.698;5.344;2022-11-04T16:12:01;5.03;;;1.40;;
70312;SDS011;57723;51.698;5.344;2022-11-04T16:14:28;2.88;;;1.40;;
70312;SDS011;57723;51.698;5.344;2022-11-04T16:16:53;5.18;;;1.50;;
70312;SDS011;57723;51.698;5.344;2022-11-04T16:19:19;7.13;;;1.50;;
70312;SDS011;57723;51.698;5.344;2022-11-04T16:21:45;5.68;;;1.50;;
70312;SDS011;57723;51.698;5.344;2022-11-04T16:24:21;2.78;;;1.92;;
70312;SDS011;57723;51.698;5.344;2022-11-04T16:26:47;4.10;;;1.60;;
70312;SDS011;57723;51.698;5.344;2022-11-04T16:29:17;5.10;;;1.42;;
70312;SDS011;57723;51.698;5.344;2022-11-04T16:31:44;3.60;;;1.50;;
70312;SDS011;57723;51.698;5.344;2022-11-04T16:34:12;5.80;;;1.67;;
70312;SDS011;57723;51.698;5.344;2022-11-04T16:36:37;3.67;;;1.58;;
70312;SDS011;57723;51.698;5.344;2022-11-04T16:39:03;6.37;;;1.47;;
70312;SDS011;57723;51.698;5.344;2022-11-04T16:41:33;4.90;;;1.70;;
70312;SDS011;57723;51.698;5.344;2022-11-04T16:43:59;4.50;;;1.63;;
70312;SDS011;57723;51.698;5.344;2022-11-04T16:46:24;3.70;;;1.63;;
70312;SDS011;57723;51.698;5.344;2022-11-04T16:48:50;3.17;;;1.47;;
70312;SDS011;57723;51.698;5.344;2022-11-04T16:51:19;3.43;;;1.30;;
70312;SDS011;57723;51.698;5.344;2022-11-04T16:53:48;3.83;;;1.33;;
70312;SDS011;57723;51.698;5.344;2022-11-04T16:56:14;4.90;;;1.60;;
70312;SDS011;57723;51.698;5.344;2022-11-04T16:58:40;6.32;;;1.75;;
70312;SDS011;57723;51.698;5.344;2022-11-04T17:01:05;6.70;;;1.77;;
70312;SDS011;57723;51.698;5.344;2022-11-04T17:03:31;11.27;;;1.73;;
70312;SDS011;57723;51.698;5.344;2022-11-04T17:05:56;7.60;;;1.50;;
70312;SDS011;57723;51.698;5.344;2022-11-04T17:08:22;6.13;;;1.60;;
70312;SDS011;57723;51.698;5.344;2022-11-04T17:10:47;8.40;;;1.70;;
70312;SDS011;57723;51.698;5.344;2022-11-04T17:13:13;4.63;;;1.60;;
70312;SDS011;57723;51.698;5.344;2022-11-04T17:15:38;4.17;;;1.47;;
70312;SDS011;57723;51.698;5.344;2022-11-04T17:18:04;5.57;;;1.75;;
70312;SDS011;57723;51.698;5.344;2022-11-04T17:20:29;5.03;;;1.50;;
70312;SDS011;57723;51.698;5.344;2022-11-04T17:22:55;4.45;;;1.60;;